Eagle County Regional Airport Eagle US
ICAO: KEGE
IATA: EGE
Category: Medium
Scheduled Services: Yes

Elevation: 6548 ft
TransAlt. 18000 ft.

Airport Communications:
ATIS:135.575
AWOS 3:135.575
DENVER CNTR:128.65
CTAF:119.8
GND/CLNC DEL:121.8
EAGLES NEST:41.75
DENVER RDO:122.2
TWR:119.8

KEGE Zoom In..

Runways:

(A) RW 07 length 9000 ft width 150 ft
LOC 110.10 / hdg 69

(B) RW 25 length 9000 ft width 150 ft
LOC 110.10 / hdg 249

Location; KEGE
Day. 23 / Time. 21.56 Zulu
* Altimeter: 30.04
* Temperature: 24° c. 75.2°f.
* Wind from: 230° Speed 22 kn with Gusts up to 31 kn.
Dewpoint: -06° c.
Visibility: 10 Statute Miles.
Clouds: Clear (automated report).

KEGE 232156Z 23022G31KT 10SM CLR 24/M06 A3004 RMK AO2 PK WND 25031/2149 SLP129 T02441056


Wind From 230°
Speed 22 kn.

 
 
jpsmedia.com for Web Design SOUNDCLOUD worldairports.se 2018   terms of use